createdAt,value
2022-08-16T00:01:09.229Z,76.41
2022-08-16T00:03:37.765Z,76.69
2022-08-16T00:06:04.685Z,76.88
2022-08-16T00:08:36.667Z,77.02
2022-08-16T00:11:15.956Z,77.23
2022-08-16T00:13:54.174Z,77.25
2022-08-16T00:17:05.310Z,77.33
2022-08-16T00:19:41.513Z,77.07
2022-08-16T00:22:12.972Z,76.81
2022-08-16T00:24:40.441Z,76.43
2022-08-16T00:27:11.322Z,76.51
2022-08-16T00:29:38.245Z,76.46
2022-08-16T00:32:07.199Z,76.98
2022-08-16T00:34:44.057Z,77.04
2022-08-16T00:37:17.197Z,77.62
2022-08-16T00:39:47.116Z,77.65
2022-08-16T00:42:30.381Z,77.71
2022-08-16T00:45:06.354Z,77.90
2022-08-16T00:47:34.353Z,78.00
2022-08-16T00:50:00.965Z,78.07
2022-08-16T00:52:30.741Z,78.25
2022-08-16T00:54:59.450Z,78.00
2022-08-16T00:57:27.601Z,77.92
2022-08-16T01:00:27.002Z,77.83
2022-08-16T01:02:57.373Z,77.94
2022-08-16T01:05:25.624Z,77.96
2022-08-16T01:07:53.731Z,78.13
2022-08-16T01:10:32.367Z,78.42
2022-08-16T01:13:21.898Z,78.30
2022-08-16T01:16:01.181Z,78.17
2022-08-16T01:18:41.477Z,78.14
2022-08-16T01:21:47.060Z,78.32
2022-08-16T01:24:44.520Z,78.27
2022-08-16T01:27:34.529Z,78.65
2022-08-16T01:30:20.659Z,78.77
2022-08-16T01:33:01.538Z,79.12
2022-08-16T01:35:44.722Z,79.19
2022-08-16T01:38:28.485Z,79.25
2022-08-16T01:41:09.010Z,79.04
2022-08-16T01:43:38.681Z,78.80
2022-08-16T01:46:37.791Z,78.95
2022-08-16T01:49:16.095Z,79.18
2022-08-16T01:51:47.906Z,79.42
2022-08-16T01:54:31.255Z,79.37
2022-08-16T01:56:59.691Z,79.61
2022-08-16T01:59:27.967Z,79.60
2022-08-16T02:02:00.002Z,79.55
2022-08-16T02:04:49.028Z,79.77
2022-08-16T02:07:18.761Z,79.80
2022-08-16T02:09:56.850Z,79.81
2022-08-16T02:12:50.455Z,79.58
2022-08-16T02:15:17.108Z,79.81
2022-08-16T02:17:52.556Z,79.89
2022-08-16T02:20:19.822Z,79.19
2022-08-16T02:22:55.303Z,79.01
2022-08-16T02:25:22.546Z,79.25
2022-08-16T02:27:51.148Z,79.39
2022-08-16T02:30:36.897Z,79.48
2022-08-16T02:33:09.024Z,79.52
2022-08-16T02:35:54.386Z,79.17
2022-08-16T02:38:26.783Z,79.27
2022-08-16T02:40:54.957Z,79.22
2022-08-16T02:43:26.758Z,79.03
2022-08-16T02:45:57.677Z,79.23
2022-08-16T02:48:28.906Z,79.05
2022-08-16T02:51:06.690Z,79.20
2022-08-16T02:53:40.192Z,79.48
2022-08-16T02:56:09.824Z,79.68
2022-08-16T02:58:37.488Z,79.87
2022-08-16T03:01:07.267Z,79.66
2022-08-16T03:04:29.628Z,79.69
2022-08-16T03:06:41.305Z,79.48
2022-08-16T03:09:18.053Z,79.26
2022-08-16T03:11:50.719Z,79.40
2022-08-16T03:14:20.842Z,79.20
2022-08-16T03:16:59.437Z,79.21
2022-08-16T03:19:47.877Z,79.19
2022-08-16T03:22:28.347Z,79.29
2022-08-16T03:24:58.408Z,79.55
2022-08-16T03:27:30.690Z,79.55
2022-08-16T03:30:02.044Z,79.41
2022-08-16T03:32:29.260Z,79.30
2022-08-16T03:34:55.876Z,79.14
2022-08-16T03:37:23.570Z,79.11
2022-08-16T03:39:56.695Z,79.29
2022-08-16T03:42:30.141Z,79.43
2022-08-16T03:45:03.895Z,79.52
2022-08-16T03:47:34.903Z,79.60
2022-08-16T03:50:03.874Z,79.57
2022-08-16T03:52:50.515Z,79.35
2022-08-16T03:55:17.277Z,79.67
2022-08-16T03:57:44.544Z,79.74
2022-08-16T04:00:40.265Z,79.79
2022-08-16T04:03:13.412Z,79.37
2022-08-16T04:05:48.426Z,79.36
2022-08-16T04:08:24.623Z,79.74
2022-08-16T04:10:58.153Z,79.77
2022-08-16T04:14:00.408Z,79.75
2022-08-16T04:16:26.429Z,79.86
2022-08-16T04:19:02.142Z,79.85
2022-08-16T04:21:36.109Z,79.90
2022-08-16T04:24:13.189Z,79.80
2022-08-16T04:26:45.821Z,80.15
2022-08-16T04:29:16.703Z,79.84
2022-08-16T04:31:56.544Z,79.69
2022-08-16T04:34:29.232Z,79.77
2022-08-16T04:36:57.717Z,79.58
2022-08-16T04:39:45.862Z,79.48
2022-08-16T04:42:13.577Z,79.52
2022-08-16T04:44:53.409Z,79.60
2022-08-16T04:47:33.246Z,79.82
2022-08-16T04:50:11.887Z,79.74
2022-08-16T04:52:57.888Z,79.71
2022-08-16T04:55:31.776Z,79.51
2022-08-16T04:58:43.650Z,79.40
2022-08-16T05:00:55.027Z,79.41
2022-08-16T05:03:23.432Z,79.38
2022-08-16T05:05:58.996Z,79.24
2022-08-16T05:08:32.317Z,79.20
2022-08-16T05:11:08.336Z,79.12
2022-08-16T05:13:41.177Z,79.44
2022-08-16T05:16:16.559Z,79.32
2022-08-16T05:18:49.010Z,78.81
2022-08-16T05:21:15.740Z,78.25
2022-08-16T05:23:51.446Z,77.37
2022-08-16T05:26:28.266Z,76.95
2022-08-16T05:28:57.058Z,76.60
2022-08-16T05:31:29.516Z,76.74
2022-08-16T05:33:59.059Z,76.44
2022-08-16T05:36:34.336Z,76.26
2022-08-16T05:39:06.759Z,77.05
2022-08-16T05:41:44.511Z,77.09
2022-08-16T05:44:23.063Z,77.17
2022-08-16T05:46:56.084Z,76.77
2022-08-16T05:49:25.129Z,76.93
2022-08-16T05:51:57.036Z,76.71
2022-08-16T05:54:25.960Z,76.90
2022-08-16T05:56:56.777Z,76.92
2022-08-16T05:59:26.919Z,76.99
2022-08-16T06:01:55.067Z,77.21
2022-08-16T06:04:35.384Z,77.14
2022-08-16T06:07:09.130Z,77.34
2022-08-16T06:09:59.695Z,77.00
2022-08-16T06:12:28.683Z,76.54
2022-08-16T06:15:04.529Z,76.22
2022-08-16T06:17:42.576Z,75.61
2022-08-16T06:20:24.186Z,75.19
2022-08-16T06:23:03.316Z,75.36
2022-08-16T06:25:43.469Z,73.93
2022-08-16T06:28:16.935Z,73.44
2022-08-16T06:30:45.142Z,73.17
2022-08-16T06:33:22.012Z,72.64
2022-08-16T06:35:55.259Z,72.41
2022-08-16T06:38:33.994Z,71.75
2022-08-16T06:41:13.424Z,71.49
2022-08-16T06:43:42.069Z,70.46
2022-08-16T06:46:34.314Z,70.40
2022-08-16T06:49:11.101Z,70.43
2022-08-16T06:51:46.590Z,70.69
2022-08-16T06:54:18.436Z,69.74
2022-08-16T06:56:45.697Z,69.72
2022-08-16T06:59:14.311Z,69.42
2022-08-16T07:01:59.796Z,68.62
2022-08-16T07:04:32.736Z,67.77
2022-08-16T07:07:06.084Z,67.42
2022-08-16T07:09:36.191Z,65.45
2022-08-16T07:12:05.603Z,65.96
2022-08-16T07:14:35.659Z,65.80
2022-08-16T07:17:08.210Z,65.53
2022-08-16T07:20:29.609Z,64.43
2022-08-16T07:22:37.669Z,64.35
2022-08-16T07:25:27.727Z,64.37
2022-08-16T07:27:54.699Z,63.15
2022-08-16T07:30:39.470Z,63.56
2022-08-16T07:33:52.107Z,63.71
2022-08-16T07:36:09.603Z,63.53
2022-08-16T07:38:41.973Z,62.77
2022-08-16T07:41:10.117Z,62.37
2022-08-16T07:43:43.509Z,63.21
2022-08-16T07:46:39.233Z,62.14
2022-08-16T07:49:02.227Z,62.31
2022-08-16T07:51:35.599Z,61.35
2022-08-16T07:54:09.555Z,61.22
2022-08-16T07:56:41.628Z,60.77
2022-08-16T07:59:08.327Z,61.10
2022-08-16T08:01:35.641Z,60.56
2022-08-16T08:04:03.906Z,60.08
2022-08-16T08:06:36.068Z,59.67
2022-08-16T08:09:11.957Z,59.77
2022-08-16T08:11:38.790Z,59.46
2022-08-16T08:14:08.128Z,58.79
2022-08-16T08:16:45.385Z,58.30
2022-08-16T08:19:18.873Z,57.94
2022-08-16T08:21:58.940Z,58.16
2022-08-16T08:24:38.854Z,57.24
2022-08-16T08:27:10.758Z,57.09
2022-08-16T08:29:40.463Z,56.27
2022-08-16T08:32:57.881Z,55.87
2022-08-16T08:35:03.947Z,56.61
2022-08-16T08:37:55.681Z,55.86
2022-08-16T08:40:24.776Z,100.00
2022-08-16T08:42:57.652Z,56.50
2022-08-16T08:45:48.917Z,54.39
2022-08-16T08:48:33.033Z,55.28
2022-08-16T08:51:05.378Z,54.67
2022-08-16T08:53:39.846Z,53.16
2022-08-16T08:56:22.353Z,54.26
2022-08-16T08:58:54.879Z,52.79
2022-08-16T09:01:36.561Z,51.58
2022-08-16T09:04:10.591Z,51.18
2022-08-16T09:06:43.269Z,49.99
2022-08-16T09:09:17.006Z,49.99
2022-08-16T09:11:53.343Z,50.17
2022-08-16T09:14:33.010Z,100.00
2022-08-16T09:17:11.429Z,100.00
2022-08-16T09:19:41.318Z,100.00
2022-08-16T09:22:20.014Z,100.00
2022-08-16T09:24:52.478Z,100.00
2022-08-16T09:27:23.463Z,47.42
2022-08-16T09:30:00.188Z,47.53
2022-08-16T09:32:31.373Z,100.00
2022-08-16T09:35:01.539Z,46.33
2022-08-16T09:37:36.303Z,46.89
2022-08-16T09:40:18.002Z,45.56
2022-08-16T09:42:59.214Z,47.64
2022-08-16T09:45:28.671Z,46.24
2022-08-16T09:47:57.754Z,45.16
2022-08-16T09:50:36.720Z,44.62
2022-08-16T09:53:15.270Z,44.67
2022-08-16T09:55:46.414Z,44.09
2022-08-16T09:58:41.631Z,45.53
2022-08-16T10:01:03.364Z,46.18
2022-08-16T10:03:30.519Z,45.68
2022-08-16T10:05:57.366Z,46.67
2022-08-16T10:08:25.746Z,44.80
2022-08-16T10:11:12.348Z,45.13
2022-08-16T10:13:39.674Z,44.67
2022-08-16T10:18:56.596Z,44.57
2022-08-16T10:21:23.706Z,43.19
2022-08-16T10:23:53.666Z,42.85
2022-08-16T10:27:16.170Z,43.61
2022-08-16T10:29:11.596Z,44.23
2022-08-16T10:31:44.130Z,44.58
2022-08-16T10:34:30.954Z,43.04
2022-08-16T10:37:02.682Z,42.78
2022-08-16T10:39:40.617Z,41.59
2022-08-16T10:42:09.233Z,41.50
2022-08-16T10:44:36.572Z,41.90
2022-08-16T10:47:03.600Z,41.68
2022-08-16T10:49:30.561Z,42.66
2022-08-16T10:52:02.466Z,41.11
2022-08-16T10:54:59.965Z,40.42
2022-08-16T10:57:33.058Z,40.79
2022-08-16T11:00:00.037Z,39.65
2022-08-16T11:02:57.908Z,39.42
2022-08-16T11:05:17.044Z,38.64
2022-08-16T11:07:52.091Z,38.24
2022-08-16T11:19:05.212Z,36.62
2022-08-16T11:22:22.941Z,36.65
2022-08-16T11:24:42.711Z,38.05
2022-08-16T11:27:23.397Z,36.68
2022-08-16T11:29:55.583Z,38.14
2022-08-16T11:32:29.726Z,34.71
2022-08-16T11:35:10.578Z,34.07
2022-08-16T11:40:32.351Z,34.98
2022-08-16T11:43:01.431Z,34.04
2022-08-16T11:45:33.910Z,35.63
2022-08-16T11:48:05.414Z,35.82
2022-08-16T11:50:33.614Z,35.60
2022-08-16T11:53:02.440Z,35.05
2022-08-16T11:55:31.101Z,35.17
2022-08-16T11:57:57.742Z,35.59
2022-08-16T12:00:33.819Z,35.69
2022-08-16T12:03:11.162Z,36.03
2022-08-16T12:05:39.600Z,36.07
2022-08-16T12:08:07.638Z,34.75
2022-08-16T12:10:36.664Z,35.07
2022-08-16T12:13:04.196Z,35.45
2022-08-16T12:15:31.201Z,35.57
2022-08-16T12:18:02.203Z,35.04
2022-08-16T12:20:32.895Z,35.17
2022-08-16T12:23:01.793Z,36.01
2022-08-16T12:25:30.631Z,35.31
2022-08-16T12:27:57.620Z,35.60
2022-08-16T12:30:34.905Z,35.55
2022-08-16T12:33:06.689Z,34.16
2022-08-16T12:35:35.626Z,35.21
2022-08-16T12:38:37.773Z,34.24
2022-08-16T12:40:52.935Z,35.50
2022-08-16T12:43:23.467Z,34.76
2022-08-16T12:45:54.079Z,34.46
2022-08-16T12:48:44.672Z,32.49
2022-08-16T12:51:22.277Z,100.00
2022-08-16T12:53:56.423Z,100.00
2022-08-16T12:56:29.113Z,100.00
2022-08-16T12:58:57.321Z,100.00
2022-08-16T13:01:30.812Z,100.00
2022-08-16T13:04:11.518Z,100.00
2022-08-16T13:06:48.420Z,100.00
2022-08-16T13:09:20.421Z,100.00
2022-08-16T13:12:00.233Z,100.00
2022-08-16T13:14:33.818Z,100.00
2022-08-16T13:17:02.607Z,100.00
2022-08-16T13:19:56.292Z,100.00
2022-08-16T13:22:19.756Z,100.00
2022-08-16T13:24:46.826Z,100.00
2022-08-16T13:27:13.893Z,100.00
2022-08-16T13:29:44.149Z,100.00
2022-08-16T13:32:39.446Z,100.00
2022-08-16T13:34:57.862Z,33.39
2022-08-16T13:37:24.642Z,33.67
2022-08-16T13:39:52.950Z,33.36
2022-08-16T13:42:20.488Z,33.33
2022-08-16T13:44:56.479Z,33.16
2022-08-16T13:47:30.200Z,33.09
2022-08-16T13:49:57.077Z,33.13
2022-08-16T13:52:25.361Z,32.16
2022-08-16T13:55:01.124Z,32.55
2022-08-16T13:58:35.588Z,32.75
2022-08-16T14:00:19.567Z,31.30
2022-08-16T14:02:48.940Z,31.84
2022-08-16T14:05:20.052Z,31.04
2022-08-16T14:07:52.713Z,30.49
2022-08-16T14:10:19.831Z,30.77
2022-08-16T14:12:47.959Z,30.29
2022-08-16T14:15:16.104Z,30.89
2022-08-16T14:18:19.916Z,31.69
2022-08-16T14:20:29.493Z,31.24
2022-08-16T14:22:56.948Z,31.71
2022-08-16T14:25:25.493Z,30.19
2022-08-16T14:27:54.342Z,30.65
2022-08-16T14:30:22.089Z,31.09
2022-08-16T14:32:51.062Z,30.67
2022-08-16T14:35:29.360Z,30.52
2022-08-16T14:38:13.559Z,31.81
2022-08-16T14:40:50.974Z,30.77
2022-08-16T14:43:20.176Z,30.96
2022-08-16T14:45:50.450Z,31.46
2022-08-16T14:48:21.513Z,30.32
2022-08-16T14:50:51.977Z,31.26
2022-08-16T14:53:18.702Z,30.74
2022-08-16T14:55:46.123Z,30.79
2022-08-16T14:58:19.479Z,31.09
2022-08-16T15:00:50.706Z,30.14
2022-08-16T15:03:21.132Z,31.13
2022-08-16T15:05:48.433Z,31.68
2022-08-16T15:08:17.792Z,31.15
2022-08-16T15:10:47.222Z,32.02
2022-08-16T15:13:15.118Z,31.10
2022-08-16T15:15:43.370Z,30.70
2022-08-16T15:18:12.043Z,31.07
2022-08-16T15:20:38.951Z,32.11
2022-08-16T15:23:08.556Z,31.51
2022-08-16T15:25:41.279Z,31.95
2022-08-16T15:28:23.500Z,33.12
2022-08-16T15:31:00.250Z,100.00
2022-08-16T15:33:27.492Z,100.00
2022-08-16T15:35:58.058Z,100.00
2022-08-16T15:38:56.980Z,100.00
2022-08-16T15:41:43.616Z,100.00
2022-08-16T15:44:13.321Z,100.00
2022-08-16T15:46:55.207Z,100.00
2022-08-16T15:49:37.330Z,100.00
2022-08-16T15:52:11.158Z,100.00
2022-08-16T15:54:52.152Z,100.00
2022-08-16T15:57:19.669Z,100.00
2022-08-16T15:59:55.572Z,100.00
2022-08-16T16:02:30.850Z,100.00
2022-08-16T16:05:04.617Z,100.00
2022-08-16T16:07:33.218Z,100.00
2022-08-16T16:10:05.875Z,100.00
2022-08-16T16:12:50.906Z,100.00
2022-08-16T16:15:29.543Z,100.00
2022-08-16T16:17:56.770Z,100.00
2022-08-16T16:20:27.185Z,100.00
2022-08-16T16:23:02.340Z,100.00
2022-08-16T16:25:30.104Z,100.00
2022-08-16T16:28:00.186Z,100.00
2022-08-16T16:30:37.284Z,100.00
2022-08-16T16:33:20.831Z,100.00
2022-08-16T16:35:55.328Z,100.00
2022-08-16T16:38:30.771Z,100.00
2022-08-16T16:41:09.075Z,100.00
2022-08-16T16:43:40.698Z,100.00
2022-08-16T16:46:42.336Z,100.00
2022-08-16T16:48:54.903Z,100.00
2022-08-16T16:51:22.273Z,100.00
2022-08-16T16:53:55.769Z,100.00
2022-08-16T16:56:30.290Z,100.00
2022-08-16T16:59:06.030Z,100.00
2022-08-16T17:01:56.988Z,100.00
2022-08-16T17:04:32.005Z,100.00
2022-08-16T17:07:01.344Z,100.00
2022-08-16T17:09:28.059Z,100.00
2022-08-16T17:11:56.084Z,100.00
2022-08-16T17:14:32.913Z,100.00
2022-08-16T17:17:08.394Z,100.00
2022-08-16T17:19:41.179Z,100.00
2022-08-16T17:22:20.267Z,100.00
2022-08-16T17:24:52.408Z,100.00
2022-08-16T17:27:33.990Z,100.00
2022-08-16T17:30:14.875Z,100.00
2022-08-16T17:32:48.158Z,100.00
2022-08-16T17:35:18.515Z,100.00
2022-08-16T17:37:51.662Z,100.00
2022-08-16T17:40:41.013Z,100.00
2022-08-16T17:43:10.678Z,100.00
2022-08-16T17:45:39.283Z,100.00
2022-08-16T17:48:06.465Z,100.00
2022-08-16T17:50:33.523Z,100.00
2022-08-16T17:53:00.756Z,100.00
2022-08-16T17:55:31.031Z,100.00
2022-08-16T17:57:58.121Z,100.00
2022-08-16T18:00:25.786Z,100.00
2022-08-16T18:02:57.989Z,100.00
2022-08-16T18:05:26.505Z,100.00
2022-08-16T18:07:53.284Z,100.00
2022-08-16T18:10:33.269Z,100.00
2022-08-16T18:13:03.598Z,100.00
2022-08-16T18:15:31.063Z,100.00
2022-08-16T18:17:57.668Z,100.00
2022-08-16T18:20:43.363Z,100.00
2022-08-16T18:23:14.430Z,100.00
2022-08-16T18:25:48.265Z,100.00
2022-08-16T18:28:16.095Z,100.00
2022-08-16T18:30:45.805Z,100.00
2022-08-16T18:33:17.594Z,100.00
2022-08-16T18:35:44.710Z,100.00
2022-08-16T18:38:11.784Z,100.00
2022-08-16T18:40:39.534Z,100.00
2022-08-16T18:43:09.842Z,100.00
2022-08-16T18:45:38.335Z,100.00
2022-08-16T18:48:06.089Z,100.00
2022-08-16T18:51:03.139Z,100.00
2022-08-16T18:53:21.922Z,100.00
2022-08-16T18:55:49.400Z,100.00
2022-08-16T18:58:16.369Z,100.00
2022-08-16T19:00:56.677Z,100.00
2022-08-16T19:03:29.768Z,50.06
2022-08-16T19:05:57.920Z,49.96
2022-08-16T19:08:25.057Z,50.37
2022-08-16T19:10:52.555Z,50.53
2022-08-16T19:13:23.197Z,50.96
2022-08-16T19:15:54.428Z,50.78
2022-08-16T19:18:21.917Z,50.86
2022-08-16T19:20:48.579Z,51.10
2022-08-16T19:23:18.676Z,51.52
2022-08-16T19:25:52.962Z,51.43
2022-08-16T19:28:57.970Z,51.61
2022-08-16T19:31:12.684Z,52.24
2022-08-16T19:33:41.120Z,52.32
2022-08-16T19:36:31.266Z,52.73
2022-08-16T19:39:04.370Z,52.31
2022-08-16T19:41:36.887Z,52.81
2022-08-16T19:44:05.308Z,52.91
2022-08-16T19:46:32.038Z,53.79
2022-08-16T19:48:58.746Z,53.79
2022-08-16T19:51:25.414Z,53.54
2022-08-16T19:53:52.010Z,53.74
2022-08-16T19:56:18.766Z,53.37
2022-08-16T19:59:08.828Z,53.54
2022-08-16T20:01:32.543Z,53.44
2022-08-16T20:03:59.541Z,53.73
2022-08-16T20:06:32.192Z,54.26
2022-08-16T20:09:05.965Z,54.70
2022-08-16T20:11:32.737Z,55.12
2022-08-16T20:13:59.514Z,55.49
2022-08-16T20:16:26.473Z,54.71
2022-08-16T20:18:53.092Z,54.92
2022-08-16T20:21:19.791Z,55.04
2022-08-16T20:23:46.628Z,55.04
2022-08-16T20:26:13.296Z,54.88
2022-08-16T20:28:54.204Z,54.91
2022-08-16T20:31:25.623Z,55.59
2022-08-16T20:33:53.027Z,55.93
2022-08-16T20:36:19.835Z,56.09
2022-08-16T20:38:47.735Z,56.08
2022-08-16T20:41:15.992Z,56.10
2022-08-16T20:43:42.720Z,56.25
2022-08-16T20:46:10.144Z,56.39
2022-08-16T20:48:36.873Z,56.54
2022-08-16T20:51:04.177Z,56.63
2022-08-16T20:53:30.928Z,55.87
2022-08-16T20:55:57.656Z,55.75
2022-08-16T20:58:24.368Z,55.93
2022-08-16T21:00:51.155Z,56.10
2022-08-16T21:03:17.882Z,56.06
2022-08-16T21:05:45.361Z,56.08
2022-08-16T21:08:50.202Z,56.09
2022-08-16T21:11:02.399Z,56.39
2022-08-16T21:13:32.653Z,56.50
2022-08-16T21:16:00.976Z,55.42
2022-08-16T21:18:28.134Z,54.70
2022-08-16T21:20:54.766Z,54.79
2022-08-16T21:23:21.978Z,55.71
2022-08-16T21:25:58.044Z,55.54
2022-08-16T21:28:41.050Z,55.52
2022-08-16T21:31:10.822Z,56.71
2022-08-16T21:33:37.474Z,56.65
2022-08-16T21:36:04.722Z,56.82
2022-08-16T21:38:31.466Z,56.20
2022-08-16T21:41:00.105Z,56.00
2022-08-16T21:43:31.738Z,56.31
2022-08-16T21:45:59.857Z,56.61
2022-08-16T21:48:34.406Z,57.02
2022-08-16T21:51:03.936Z,57.07
2022-08-16T21:53:30.823Z,57.17
2022-08-16T21:55:58.795Z,57.07
2022-08-16T21:58:25.863Z,57.32
2022-08-16T22:00:52.795Z,57.94
2022-08-16T22:03:21.117Z,57.95
2022-08-16T22:06:12.219Z,57.83
2022-08-16T22:08:39.467Z,58.11
2022-08-16T22:11:17.643Z,58.10
2022-08-16T22:13:44.471Z,58.45
2022-08-16T22:16:24.564Z,58.91
2022-08-16T22:18:52.218Z,58.83
2022-08-16T22:21:19.202Z,58.91
2022-08-16T22:23:45.875Z,58.71
2022-08-16T22:26:29.991Z,58.79
2022-08-16T22:28:59.348Z,58.62
2022-08-16T22:31:26.126Z,58.55
2022-08-16T22:33:52.746Z,58.87
2022-08-16T22:36:19.938Z,58.66
2022-08-16T22:38:54.070Z,58.69
2022-08-16T22:43:48.804Z,59.12
2022-08-16T22:46:15.483Z,59.07
2022-08-16T22:48:42.742Z,58.88
2022-08-16T22:51:09.646Z,59.12
2022-08-16T22:53:37.512Z,59.48
2022-08-16T22:56:04.622Z,59.85
2022-08-16T22:58:34.159Z,60.19
2022-08-16T23:01:05.968Z,60.15
2022-08-16T23:03:33.025Z,60.17
2022-08-16T23:06:02.954Z,60.05
2022-08-16T23:08:38.054Z,59.97
2022-08-16T23:11:06.080Z,60.42
2022-08-16T23:13:33.007Z,60.44
2022-08-16T23:16:03.273Z,60.40
2022-08-16T23:18:39.037Z,60.64
2022-08-16T23:21:09.556Z,60.88
2022-08-16T23:23:37.088Z,60.72
2022-08-16T23:26:44.269Z,61.12
2022-08-16T23:28:50.977Z,61.26
2022-08-16T23:31:17.645Z,61.62
2022-08-16T23:33:44.350Z,61.96
2022-08-16T23:36:11.168Z,62.18
2022-08-16T23:38:39.673Z,61.86
2022-08-16T23:41:09.207Z,60.00
2022-08-16T23:43:44.252Z,59.67
2022-08-16T23:46:15.022Z,60.15
2022-08-16T23:49:56.906Z,60.89
2022-08-16T23:51:29.126Z,60.69
2022-08-16T23:53:56.074Z,61.05
2022-08-16T23:56:22.648Z,61.47
2022-08-16T23:58:54.257Z,61.72
